Time;durP1;ratioP1;P1;durP2;ratioP2;P2;SDS_P1;SDS_P2;PMS_P1;PMS_P2;Temp;Humidity;BMP_temperature;BMP_pressure;BME280_temperature;BME280_humidity;BME280_pressure;Samples;Min_cycle;Max_cycle;Signal;HPM_P1;HPM_P2
2022/01/09 00:02:20;;;;;;;22.23;9.35;;;;;;;2.85;41.82;97981.03;4458254;32;20153;-86
2022/01/09 00:04:46;;;;;;;19.02;8.63;;;;;;;2.88;42.03;97973.13;4466712;32;20128;-87
2022/01/09 00:07:11;;;;;;;20.55;8.35;;;;;;;2.86;41.37;97976.66;4462591;32;20096;-86
2022/01/09 00:09:38;;;;;;;18.25;7.75;;;;;;;2.80;41.28;97969.97;4461319;32;20151;-85
2022/01/09 00:12:04;;;;;;;20.27;8.32;;;;;;;2.86;41.42;97961.94;4454348;32;20093;-85
2022/01/09 00:14:29;;;;;;;21.37;8.30;;;;;;;2.82;41.65;97969.88;4457975;32;20129;-85
2022/01/09 00:16:54;;;;;;;19.80;8.52;;;;;;;2.82;41.67;97962.06;4451276;32;20160;-85
2022/01/09 00:19:20;;;;;;;18.45;8.02;;;;;;;2.89;41.66;97964.41;4455530;32;20146;-87
2022/01/09 00:21:45;;;;;;;21.12;8.40;;;;;;;2.83;41.33;97956.81;4455391;32;20371;-86
2022/01/09 00:24:11;;;;;;;18.60;7.43;;;;;;;2.92;41.24;97947.84;4454187;32;20097;-86
2022/01/09 00:26:37;;;;;;;18.98;7.68;;;;;;;2.95;40.64;97942.50;4458838;32;20108;-86
2022/01/09 00:29:02;;;;;;;20.65;8.00;;;;;;;2.99;40.51;97938.88;4465014;32;20432;-85
2022/01/09 00:31:28;;;;;;;21.95;8.95;;;;;;;2.97;40.40;97938.09;4469202;32;20092;-85
2022/01/09 00:33:53;;;;;;;20.00;8.45;;;;;;;2.96;40.25;97933.81;4457171;32;20366;-84
2022/01/09 00:36:18;;;;;;;19.95;8.38;;;;;;;2.98;39.99;97928.56;4471287;32;20379;-84
2022/01/09 00:38:44;;;;;;;18.30;8.13;;;;;;;2.95;40.11;97921.69;4471391;32;20109;-84
2022/01/09 00:41:09;;;;;;;20.80;8.77;;;;;;;2.92;40.32;97932.22;4471088;32;20093;-84
2022/01/09 00:43:35;;;;;;;18.70;7.78;;;;;;;2.90;40.71;97924.47;4457257;32;20471;-84
2022/01/09 00:46:00;;;;;;;22.52;9.27;;;;;;;2.96;40.86;97926.00;4471210;32;20162;-86
2022/01/09 00:48:25;;;;;;;19.80;9.20;;;;;;;2.94;40.80;97930.44;4457061;32;20495;-85
2022/01/09 00:50:51;;;;;;;23.85;8.75;;;;;;;2.95;40.57;97919.97;4457068;32;20089;-88
2022/01/09 00:53:16;;;;;;;20.75;8.35;;;;;;;3.06;40.25;97921.31;4469302;32;20088;-84
2022/01/09 00:55:42;;;;;;;21.35;9.23;;;;;;;3.07;40.54;97916.03;4454193;32;20120;-84
2022/01/09 00:58:07;;;;;;;21.58;7.90;;;;;;;3.07;40.25;97912.56;4468829;32;20123;-83
2022/01/09 01:00:35;;;;;;;22.30;8.57;;;;;;;3.18;40.11;97909.56;4470277;32;20167;-84
2022/01/09 01:03:00;;;;;;;23.12;8.15;;;;;;;3.16;40.15;97899.22;4456200;32;20084;-83
2022/01/09 01:05:26;;;;;;;20.77;8.15;;;;;;;3.20;40.36;97903.38;4470228;32;20127;-83
2022/01/09 01:07:51;;;;;;;22.48;9.07;;;;;;;3.20;40.13;97898.19;4470232;32;20084;-83
2022/01/09 01:10:17;;;;;;;22.05;8.90;;;;;;;3.16;40.17;97899.22;4470319;32;20119;-83
2022/01/09 01:12:43;;;;;;;20.88;8.50;;;;;;;3.16;40.19;97899.22;4456704;32;20140;-83
2022/01/09 01:15:09;;;;;;;23.00;9.48;;;;;;;3.06;40.50;97885.72;4471113;32;20109;-83
2022/01/09 01:17:35;;;;;;;22.58;8.65;;;;;;;3.07;40.63;97883.94;4471042;32;20391;-83
2022/01/09 01:20:01;;;;;;;20.42;9.00;;;;;;;3.07;40.79;97886.56;4456905;32;20149;-83
2022/01/09 01:22:28;;;;;;;24.17;9.00;;;;;;;2.94;41.07;97875.78;4456854;32;20390;-83
2022/01/09 01:24:56;;;;;;;20.77;8.82;;;;;;;2.99;41.20;97860.00;4456696;32;20127;-83
2022/01/09 01:27:21;;;;;;;23.73;9.77;;;;;;;2.84;41.68;97867.50;4470992;32;20096;-83
2022/01/09 01:29:47;;;;;;;22.45;9.57;;;;;;;2.80;41.89;97860.72;4470900;32;20118;-83
2022/01/09 01:32:12;;;;;;;22.55;8.40;;;;;;;2.79;41.92;97863.38;4470774;32;20470;-84
2022/01/09 01:34:38;;;;;;;22.95;9.57;;;;;;;2.79;42.08;97845.16;4470602;32;20383;-82
2022/01/09 01:37:03;;;;;;;21.37;9.07;;;;;;;2.65;42.52;97856.09;4470708;32;20353;-83
2022/01/09 01:39:29;;;;;;;21.35;8.50;;;;;;;2.74;42.51;97845.31;4470812;32;20080;-82
2022/01/09 01:41:54;;;;;;;19.87;8.02;;;;;;;2.86;42.43;97846.59;4470707;32;20349;-83
2022/01/09 01:44:19;;;;;;;20.08;8.32;;;;;;;2.91;42.42;97842.91;4470412;32;20111;-83
2022/01/09 01:46:45;;;;;;;21.27;8.55;;;;;;;2.94;42.43;97837.59;4456410;32;20132;-83
2022/01/09 01:49:11;;;;;;;19.42;8.15;;;;;;;3.00;42.51;97836.53;4470489;32;20085;-83
2022/01/09 01:51:39;;;;;;;20.90;8.75;;;;;;;2.98;42.34;97833.12;4470510;32;20157;-83
2022/01/09 01:54:05;;;;;;;19.30;8.13;;;;;;;3.03;42.21;97825.97;4456401;32;20109;-83
2022/01/09 01:56:31;;;;;;;21.75;8.77;;;;;;;3.02;42.36;97824.28;4470564;32;20101;-83
2022/01/09 01:58:56;;;;;;;22.25;9.07;;;;;;;2.95;42.66;97821.09;4470411;32;20069;-83
2022/01/09 02:01:22;;;;;;;21.35;9.10;;;;;;;2.97;42.94;97817.56;4456133;32;20111;-83
2022/01/09 02:03:47;;;;;;;21.35;9.07;;;;;;;2.84;43.35;97817.19;4456043;32;20131;-83
2022/01/09 02:06:16;;;;;;;22.35;8.73;;;;;;;2.82;43.25;97819.88;4470274;32;20118;-84
2022/01/09 02:08:43;;;;;;;20.75;9.13;;;;;;;2.82;43.02;97814.69;4471955;32;20080;-83
2022/01/09 02:11:11;;;;;;;19.77;8.77;;;;;;;2.72;43.11;97813.31;4458334;32;20146;-83
2022/01/09 02:13:40;;;;;;;20.83;8.50;;;;;;;2.70;43.04;97817.75;4472368;32;20517;-83
2022/01/09 02:16:07;;;;;;;22.25;8.82;;;;;;;2.66;43.28;97809.22;4458562;32;20112;-83
2022/01/09 02:18:32;;;;;;;21.70;8.38;;;;;;;2.61;43.47;97803.34;4458236;32;20166;-83
2022/01/09 02:20:58;;;;;;;24.20;9.00;;;;;;;2.43;43.31;97807.47;4472204;32;20085;-83
2022/01/09 02:23:23;;;;;;;19.55;8.48;;;;;;;2.50;43.18;97800.31;4472380;32;20089;-84
2022/01/09 02:25:50;;;;;;;21.58;8.20;;;;;;;2.53;43.51;97803.66;4472244;32;20356;-83
2022/01/09 02:28:16;;;;;;;20.60;8.35;;;;;;;2.40;43.82;97788.56;4458290;32;20217;-83
2022/01/09 02:30:43;;;;;;;19.52;8.18;;;;;;;2.44;43.91;97787.56;4458192;32;20077;-83
2022/01/09 02:33:14;;;;;;;21.85;8.10;;;;;;;2.31;43.85;97776.75;4458091;32;20136;-83
2022/01/09 02:35:39;;;;;;;22.80;9.65;;;;;;;2.31;44.02;97781.97;4457896;32;20131;-83
2022/01/09 02:38:06;;;;;;;21.02;9.13;;;;;;;2.23;44.26;97784.00;4458154;32;20085;-84
2022/01/09 02:40:32;;;;;;;18.73;8.55;;;;;;;2.25;44.55;97782.19;4472186;32;20111;-84
2022/01/09 02:42:58;;;;;;;20.40;8.50;;;;;;;2.22;44.76;97782.28;4472295;32;20104;-83
2022/01/09 02:45:25;;;;;;;22.70;9.80;;;;;;;2.19;44.90;97788.47;4472058;32;20092;-83
2022/01/09 02:47:53;;;;;;;25.02;9.70;;;;;;;2.15;45.11;97781.69;4472262;32;20110;-83
2022/01/09 02:52:51;;;;;;;20.95;9.00;;;;;;;1.75;46.17;97780.50;4472008;32;20101;-83
2022/01/09 02:55:18;;;;;;;22.87;9.60;;;;;;;1.91;45.89;97779.09;4458306;32;20108;-83
2022/01/09 02:57:55;;;;;;;22.65;9.48;;;;;;;1.91;45.83;97773.03;4472072;32;20108;-83
2022/01/09 03:00:28;;;;;;;23.55;9.90;;;;;;;1.86;46.13;97773.19;4457846;32;20486;-83
2022/01/09 03:02:55;;;;;;;24.55;10.00;;;;;;;1.82;46.39;97771.62;4472115;32;20104;-83
2022/01/09 03:05:21;;;;;;;21.12;9.07;;;;;;;1.82;46.65;97773.38;4472022;32;20101;-83
2022/01/09 03:07:47;;;;;;;21.80;9.20;;;;;;;1.84;46.93;97761.19;4472073;32;20096;-83
2022/01/09 03:10:14;;;;;;;24.23;9.43;;;;;;;1.84;46.67;97761.19;4457830;32;20088;-83
2022/01/09 03:12:39;;;;;;;22.58;9.23;;;;;;;1.80;46.72;97756.97;4457789;32;20450;-83
2022/01/09 03:15:07;;;;;;;25.75;9.70;;;;;;;1.72;46.54;97762.44;4472066;32;20120;-83
2022/01/09 03:17:32;;;;;;;24.85;9.63;;;;;;;1.62;46.81;97761.91;4471773;32;20084;-83
2022/01/09 03:19:58;;;;;;;22.15;8.77;;;;;;;1.63;47.00;97765.38;4471765;32;20103;-83
2022/01/09 03:22:24;;;;;;;21.35;8.57;;;;;;;1.56;46.99;97764.72;4457935;32;20444;-83
2022/01/09 03:24:49;;;;;;;22.67;8.57;;;;;;;1.55;46.71;97757.84;4472142;32;20084;-83
2022/01/09 03:27:15;;;;;;;21.62;8.95;;;;;;;1.49;47.05;97758.06;4471982;32;20120;-83
2022/01/09 03:29:41;;;;;;;22.98;10.18;;;;;;;1.54;47.16;97756.16;4472098;32;20108;-83
2022/01/09 03:32:07;;;;;;;20.45;8.95;;;;;;;1.49;47.29;97756.31;4457927;32;20109;-82
2022/01/09 03:34:33;;;;;;;23.45;10.05;;;;;;;1.45;47.54;97749.53;4471803;32;20127;-83
2022/01/09 03:36:59;;;;;;;21.65;9.23;;;;;;;1.50;47.55;97747.63;4457456;32;20119;-83
2022/01/09 03:39:24;;;;;;;24.40;10.85;;;;;;;1.45;47.68;97749.53;4444607;32;20084;-83
2022/01/09 03:41:50;;;;;;;23.75;10.13;;;;;;;1.37;47.91;97742.03;4471683;32;20124;-83
2022/01/09 03:44:15;;;;;;;22.62;9.20;;;;;;;1.42;47.87;97739.25;4457245;32;20120;-83
2022/01/09 03:46:41;;;;;;;24.27;9.52;;;;;;;1.42;47.94;97738.41;4457527;32;20115;-83
2022/01/09 03:49:06;;;;;;;25.85;9.80;;;;;;;1.42;48.13;97744.44;4471610;32;20106;-83
2022/01/09 03:51:36;;;;;;;24.63;9.70;;;;;;;1.45;48.00;97754.75;4457530;32;20104;-83
2022/01/09 03:54:03;;;;;;;22.27;9.40;;;;;;;1.45;47.98;97753.88;4458159;32;20108;-83
2022/01/09 03:56:29;;;;;;;29.70;10.57;;;;;;;1.46;47.86;97740.84;4471685;32;20157;-84
2022/01/09 03:58:54;;;;;;;23.73;10.38;;;;;;;1.32;48.20;97741.31;4444423;32;20101;-83
2022/01/09 04:01:20;;;;;;;26.42;10.82;;;;;;;1.34;48.39;97743.88;4471631;32;20150;-83
2022/01/09 04:03:45;;;;;;;25.00;11.02;;;;;;;1.20;48.59;97746.94;4471652;32;20494;-83
2022/01/09 04:06:10;;;;;;;24.58;10.82;;;;;;;1.32;48.55;97748.28;4471468;32;20105;-84
2022/01/09 04:08:36;;;;;;;24.48;10.35;;;;;;;1.13;49.06;97746.28;4471642;32;20112;-83
2022/01/09 04:11:03;;;;;;;32.15;12.00;;;;;;;1.00;49.61;97746.75;4471561;32;20101;-83
2022/01/09 04:13:29;;;;;;;30.25;11.40;;;;;;;1.06;49.99;97742.19;4471597;32;20154;-83
2022/01/09 04:15:54;;;;;;;26.42;11.02;;;;;;;1.12;49.68;97736.81;4471561;32;20112;-83
2022/01/09 04:18:22;;;;;;;28.17;11.02;;;;;;;1.14;49.55;97727.25;4457227;32;20432;-83
2022/01/09 04:20:48;;;;;;;25.15;10.80;;;;;;;1.15;49.52;97731.50;4457577;32;20121;-83
2022/01/09 04:23:14;;;;;;;28.15;11.32;;;;;;;1.13;49.55;97722.09;4457309;32;20105;-83
2022/01/09 04:25:41;;;;;;;27.83;11.45;;;;;;;1.14;49.66;97714.28;4471447;32;20453;-83
2022/01/09 04:28:06;;;;;;;28.13;12.40;;;;;;;1.17;49.73;97714.16;4444334;32;20156;-83
2022/01/09 04:30:32;;;;;;;25.98;11.25;;;;;;;1.10;49.82;97720.47;4456366;32;20459;-83
2022/01/09 04:32:57;;;;;;;32.45;13.00;;;;;;;1.06;49.95;97713.66;4457284;32;20105;-83
2022/01/09 04:35:23;;;;;;;29.55;12.45;;;;;;;1.03;50.12;97710.34;4471166;32;20088;-83
2022/01/09 04:37:49;;;;;;;32.35;12.63;;;;;;;1.04;50.44;97715.47;4471269;32;20111;-84
2022/01/09 04:40:17;;;;;;;28.25;12.63;;;;;;;1.07;50.36;97717.97;4457292;32;20108;-83
2022/01/09 04:42:45;;;;;;;29.35;12.07;;;;;;;1.03;50.32;97711.19;4471383;32;20391;-83
2022/01/09 04:45:14;;;;;;;28.42;11.82;;;;;;;1.01;50.29;97712.16;4471298;32;20428;-83
2022/01/09 04:47:45;;;;;;;28.92;12.35;;;;;;;0.93;50.28;97713.25;4471275;32;20144;-82
2022/01/09 04:50:15;;;;;;;28.85;13.50;;;;;;;0.91;50.37;97711.59;4457864;32;20488;-82
2022/01/09 04:52:41;;;;;;;30.65;13.82;;;;;;;0.83;50.94;97704.06;4457983;32;20112;-83
2022/01/09 04:55:07;;;;;;;34.25;14.13;;;;;;;0.86;51.03;97711.75;4457216;32;20097;-83
2022/01/09 04:57:33;;;;;;;33.42;15.18;;;;;;;0.81;51.39;97708.44;4457066;32;20077;-83
2022/01/09 04:59:58;;;;;;;32.75;14.75;;;;;;;0.91;51.50;97704.66;4456902;32;20158;-83
2022/01/09 05:02:24;;;;;;;30.62;14.20;;;;;;;0.85;51.39;97706.59;4471177;32;20088;-83
2022/01/09 05:04:50;;;;;;;35.47;15.77;;;;;;;0.87;51.45;97710.84;4456930;32;20428;-83
2022/01/09 05:07:15;;;;;;;35.95;15.95;;;;;;;0.77;51.58;97702.53;4456890;32;20120;-83
2022/01/09 05:09:40;;;;;;;37.10;15.43;;;;;;;0.81;51.52;97700.66;4471141;32;20092;-84
2022/01/09 05:12:06;;;;;;;32.15;14.77;;;;;;;0.84;51.30;97708.34;4456806;32;20242;-83
2022/01/09 05:14:31;;;;;;;32.53;14.20;;;;;;;0.68;51.51;97707.16;4471101;32;20123;-83
2022/01/09 05:16:57;;;;;;;35.85;15.60;;;;;;;0.75;51.50;97700.88;4470933;32;20089;-83
2022/01/09 05:19:28;;;;;;;37.33;14.23;;;;;;;0.80;51.38;97700.72;4470917;32;20145;-83
2022/01/09 05:21:55;;;;;;;36.83;16.48;;;;;;;0.76;51.42;97700.81;4471017;32;20099;-83
2022/01/09 05:24:21;;;;;;;30.47;15.23;;;;;;;0.68;51.62;97710.59;4456833;32;20151;-83
2022/01/09 05:26:46;;;;;;;36.20;15.98;;;;;;;0.70;51.63;97708.81;4470794;32;20133;-82
2022/01/09 05:29:12;;;;;;;34.53;15.25;;;;;;;0.72;51.57;97712.19;4470844;32;20108;-82
2022/01/09 05:31:38;;;;;;;36.92;15.48;;;;;;;0.73;51.65;97713.03;4470754;32;20088;-83
2022/01/09 05:34:03;;;;;;;33.90;14.57;;;;;;;0.74;51.83;97697.44;4456679;32;20620;-83
2022/01/09 05:36:29;;;;;;;34.40;15.15;;;;;;;0.80;51.61;97708.50;4443354;32;20174;-83
2022/01/09 05:38:54;;;;;;;33.40;14.77;;;;;;;0.81;51.47;97703.25;4456372;32;20132;-83
2022/01/09 05:41:20;;;;;;;35.13;14.93;;;;;;;0.76;51.65;97702.56;4471564;32;20146;-83
2022/01/09 05:43:45;;;;;;;31.73;13.73;;;;;;;0.81;51.27;97695.47;4472833;32;20128;-83
2022/01/09 05:46:11;;;;;;;33.95;14.45;;;;;;;0.77;51.16;97699.06;4472758;32;20088;-83
2022/01/09 05:48:37;;;;;;;32.45;14.65;;;;;;;0.68;51.31;97696.81;4458259;32;20113;-84
2022/01/09 05:51:02;;;;;;;31.83;14.48;;;;;;;0.61;51.56;97696.12;4458356;32;20106;-84
2022/01/09 05:53:28;;;;;;;32.92;14.85;;;;;;;0.57;51.86;97694.53;4472594;32;20411;-83
2022/01/09 05:55:53;;;;;;;31.33;13.90;;;;;;;0.62;52.02;97684.00;4472556;32;20096;-83
2022/01/09 05:58:18;;;;;;;31.75;14.63;;;;;;;0.64;51.69;97688.28;4472466;32;20119;-83
2022/01/09 06:00:44;;;;;;;36.45;15.50;;;;;;;0.54;51.61;97695.50;4472520;32;20084;-83
2022/01/09 06:03:09;;;;;;;33.90;14.90;;;;;;;0.42;52.08;97695.03;4458244;32;20097;-83
2022/01/09 06:05:35;;;;;;;32.83;14.52;;;;;;;0.53;52.13;97701.56;4472385;32;20084;-83
2022/01/09 06:08:00;;;;;;;32.55;15.07;;;;;;;0.57;52.14;97697.97;4472410;32;20156;-83
2022/01/09 06:10:25;;;;;;;40.10;15.75;;;;;;;0.58;52.12;97694.50;4458182;32;20456;-83
2022/01/09 06:12:51;;;;;;;32.40;15.70;;;;;;;0.54;52.24;97692.91;4472360;32;20119;-83
2022/01/09 06:15:17;;;;;;;29.40;13.57;;;;;;;0.53;52.20;97698.97;4458116;32;20080;-83
2022/01/09 06:17:43;;;;;;;32.08;13.70;;;;;;;0.55;52.10;97696.34;4472354;32;20109;-83
2022/01/09 06:20:11;;;;;;;32.75;14.25;;;;;;;0.53;52.30;97703.31;4458154;32;20084;-83
2022/01/09 06:22:37;;;;;;;31.45;14.68;;;;;;;0.56;52.32;97698.00;4458001;32;20119;-83
2022/01/09 06:25:03;;;;;;;31.95;13.60;;;;;;;0.57;52.31;97699.72;4458176;32;20511;-83
2022/01/09 06:27:28;;;;;;;32.53;14.27;;;;;;;0.55;52.17;97699.75;4472361;32;20126;-83
2022/01/09 06:29:54;;;;;;;31.25;13.00;;;;;;;0.53;52.04;97695.53;4458072;32;20105;-83
2022/01/09 06:32:19;;;;;;;35.72;14.43;;;;;;;0.52;52.01;97697.28;4458150;32;20089;-83
2022/01/09 06:34:45;;;;;;;31.37;13.50;;;;;;;0.55;52.12;97699.75;4457996;32;20202;-83
2022/01/09 06:37:13;;;;;;;34.95;15.77;;;;;;;0.58;52.36;97704.03;4472050;32;20119;-82
2022/01/09 06:39:40;;;;;;;32.25;15.07;;;;;;;0.56;52.74;97701.47;4472440;32;20614;-83
2022/01/09 06:42:06;;;;;;;34.00;14.45;;;;;;;0.48;52.94;97705.19;4472328;32;20410;-83
2022/01/09 06:44:31;;;;;;;33.70;15.70;;;;;;;0.53;52.87;97703.31;4472349;32;20097;-84
2022/01/09 06:46:56;;;;;;;35.13;16.00;;;;;;;0.56;52.72;97704.06;4472384;32;20146;-83
2022/01/09 06:49:22;;;;;;;33.53;15.40;;;;;;;0.57;52.82;97703.16;4458151;32;20143;-83
2022/01/09 06:51:47;;;;;;;33.17;15.00;;;;;;;0.54;52.92;97703.28;4472387;32;20085;-83
2022/01/09 06:54:13;;;;;;;37.15;16.00;;;;;;;0.65;52.88;97694.28;4471730;32;20113;-83
2022/01/09 06:56:39;;;;;;;34.50;15.80;;;;;;;0.71;52.85;97694.94;4458292;32;20172;-83
2022/01/09 06:59:05;;;;;;;33.88;15.48;;;;;;;0.71;52.78;97694.94;4458190;32;20169;-83
2022/01/09 07:01:30;;;;;;;41.47;16.17;;;;;;;0.74;52.64;97694.00;4472264;32;20097;-83
2022/01/09 07:03:56;;;;;;;35.63;15.77;;;;;;;0.86;52.69;97700.53;4472262;32;20093;-83
2022/01/09 07:06:21;;;;;;;34.88;15.98;;;;;;;0.93;52.29;97696.84;4472009;32;20093;-83
2022/01/09 07:08:47;;;;;;;34.78;16.15;;;;;;;0.94;52.35;97689.00;4472321;32;20139;-83
2022/01/09 07:11:12;;;;;;;37.65;16.25;;;;;;;0.97;52.47;97690.66;4472214;32;20080;-83
2022/01/09 07:13:37;;;;;;;36.85;16.27;;;;;;;1.03;52.60;97693.03;4471825;32;20093;-83
2022/01/09 07:16:03;;;;;;;36.03;16.55;;;;;;;1.09;52.51;97691.97;4432035;32;20202;-83
2022/01/09 07:18:29;;;;;;;34.38;16.12;;;;;;;1.12;52.46;97694.44;4471917;32;20154;-84
2022/01/09 07:20:54;;;;;;;39.50;18.12;;;;;;;1.16;52.41;97696.06;4471919;32;20096;-84
2022/01/09 07:23:19;;;;;;;40.72;17.60;;;;;;;1.20;52.66;97702.84;4457709;32;20104;-83
2022/01/09 07:25:45;;;;;;;39.95;17.33;;;;;;;1.25;52.81;97700.06;4457592;32;20353;-83
2022/01/09 07:28:10;;;;;;;40.20;17.80;;;;;;;1.38;52.90;97690.97;4471884;32;20103;-83
2022/01/09 07:30:36;;;;;;;40.78;18.85;;;;;;;1.34;52.56;97689.38;4471871;32;20101;-84
2022/01/09 07:33:03;;;;;;;41.33;18.15;;;;;;;1.36;52.58;97690.19;4457563;32;20459;-83
2022/01/09 07:35:29;;;;;;;41.03;17.07;;;;;;;1.44;52.35;97685.56;4471656;32;20104;-83
2022/01/09 07:37:54;;;;;;;34.90;16.17;;;;;;;1.44;52.52;97684.72;4471534;32;20258;-83
2022/01/09 07:40:20;;;;;;;36.88;17.35;;;;;;;1.37;53.14;97684.06;4471830;32;20120;-83
2022/01/09 07:42:46;;;;;;;37.63;17.20;;;;;;;1.37;53.13;97692.72;4471758;32;20124;-83
2022/01/09 07:45:12;;;;;;;38.45;17.45;;;;;;;1.38;52.49;97689.22;4457396;32;20105;-83
2022/01/09 07:47:38;;;;;;;48.92;18.15;;;;;;;1.32;52.53;97681.66;4457617;32;20142;-84
2022/01/09 07:50:05;;;;;;;37.28;16.65;;;;;;;1.37;52.24;97676.28;4457503;32;20109;-83
2022/01/09 07:52:34;;;;;;;39.30;17.73;;;;;;;1.39;52.27;97682.25;4471832;32;20428;-83
2022/01/09 07:54:59;;;;;;;40.65;16.33;;;;;;;1.38;52.31;97678.84;4471667;32;20534;-84
2022/01/09 07:57:25;;;;;;;40.75;17.62;;;;;;;1.39;52.43;97677.06;4457277;32;20097;-85
2022/01/09 07:59:50;;;;;;;39.42;17.48;;;;;;;1.31;52.65;97682.56;4457457;32;20083;-85
2022/01/09 08:02:16;;;;;;;37.40;18.15;;;;;;;1.48;52.65;97681.09;4457038;32;20106;-84
2022/01/09 08:04:41;;;;;;;46.37;19.80;;;;;;;1.36;52.88;97683.22;4470381;32;20096;-84
2022/01/09 08:07:06;;;;;;;40.80;18.08;;;;;;;1.46;52.98;97680.31;4457299;32;20130;-83
2022/01/09 08:09:32;;;;;;;42.03;18.23;;;;;;;1.52;53.11;97688.72;4471540;32;20106;-82
2022/01/09 08:11:57;;;;;;;39.65;17.30;;;;;;;1.57;53.01;97692.00;4447385;32;20101;-83
2022/01/09 08:14:23;;;;;;;38.72;17.80;;;;;;;1.64;52.95;97687.47;4463031;32;20131;-82
2022/01/09 08:16:48;;;;;;;36.42;18.27;;;;;;;1.72;52.59;97692.34;4457341;32;20107;-83
2022/01/09 08:19:14;;;;;;;43.58;18.80;;;;;;;1.72;52.55;97689.75;4468579;32;20084;-83
2022/01/09 08:21:39;;;;;;;42.45;19.48;;;;;;;1.76;52.30;97684.41;4465904;32;20417;-83
2022/01/09 08:24:05;;;;;;;41.47;18.48;;;;;;;1.88;52.21;97679.66;4462057;32;20150;-83
2022/01/09 08:26:30;;;;;;;38.55;19.05;;;;;;;1.93;52.12;97675.13;4457118;32;20148;-84
2022/01/09 08:28:56;;;;;;;38.13;18.37;;;;;;;1.96;52.10;97675.84;4445217;32;20100;-83
2022/01/09 08:31:22;;;;;;;36.38;17.52;;;;;;;1.93;52.58;97685.50;4443121;32;20081;-82
2022/01/09 08:33:47;;;;;;;38.55;17.52;;;;;;;2.02;52.69;97686.94;4452501;32;20665;-84
2022/01/09 08:36:13;;;;;;;39.83;18.48;;;;;;;1.99;52.84;97682.69;4462321;32;20119;-84
2022/01/09 08:38:40;;;;;;;38.45;18.42;;;;;;;2.03;52.82;97681.69;4461002;32;20115;-83
2022/01/09 08:41:05;;;;;;;41.45;18.62;;;;;;;2.13;52.64;97679.56;4456879;32;20080;-81
2022/01/09 08:43:34;;;;;;;37.67;20.58;;;;;;;2.21;52.21;97681.88;4443881;32;20128;-85
2022/01/09 08:45:59;;;;;;;45.03;19.73;;;;;;;2.16;52.34;97677.72;4464827;32;20144;-84
2022/01/09 08:48:25;;;;;;;39.80;18.25;;;;;;;2.14;52.56;97687.31;4453910;32;20380;-88
2022/01/09 08:50:50;;;;;;;40.65;18.83;;;;;;;2.19;52.51;97689.72;4456589;32;20124;-90
2022/01/09 08:53:16;;;;;;;39.78;19.52;;;;;;;2.24;52.13;97694.72;4460829;32;20147;-87
2022/01/09 08:55:42;;;;;;;43.10;19.33;;;;;;;2.33;51.76;97697.81;4455178;32;20081;-83
2022/01/09 08:58:07;;;;;;;39.58;19.08;;;;;;;2.32;51.88;97695.31;4459386;32;20135;-80
2022/01/09 09:00:33;;;;;;;39.42;18.95;;;;;;;2.39;51.75;97693.31;4456269;32;20137;-80
2022/01/09 09:02:58;;;;;;;44.95;20.02;;;;;;;2.53;51.55;97688.38;4458316;32;20092;-79
2022/01/09 09:05:24;;;;;;;37.42;17.80;;;;;;;2.53;51.59;97686.66;4450189;32;20093;-81
2022/01/09 09:07:49;;;;;;;38.35;17.20;;;;;;;2.55;51.56;97691.81;4455095;32;20421;-81
2022/01/09 09:10:15;;;;;;;43.95;19.45;;;;;;;2.56;51.48;97698.69;4455066;32;20077;-82
2022/01/09 09:12:40;;;;;;;39.42;18.17;;;;;;;2.56;51.66;97696.06;4453561;32;20399;-83
2022/01/09 09:15:07;;;;;;;38.22;18.90;;;;;;;2.65;51.56;97700.09;4456013;32;20109;-87
2022/01/09 09:17:33;;;;;;;37.72;18.15;;;;;;;2.63;51.48;97688.91;4442638;32;20168;-82
2022/01/09 09:19:58;;;;;;;39.35;18.48;;;;;;;2.52;51.54;97691.91;4450300;32;20111;-81
2022/01/09 09:22:24;;;;;;;37.13;17.87;;;;;;;2.66;51.43;97686.16;4448209;32;20097;-81
2022/01/09 09:24:50;;;;;;;36.55;17.70;;;;;;;2.66;51.39;97683.56;4456953;32;20492;-86
2022/01/09 09:27:18;;;;;;;44.08;18.90;;;;;;;2.69;51.23;97689.47;4454289;32;20115;-84
2022/01/09 09:29:43;;;;;;;40.45;19.17;;;;;;;2.73;50.96;97690.22;4466542;32;20077;-81
2022/01/09 09:32:09;;;;;;;37.17;18.52;;;;;;;2.79;50.80;97692.56;4461868;32;20141;-83
2022/01/09 09:34:34;;;;;;;38.58;18.33;;;;;;;2.85;50.92;97694.91;4446809;32;450855;-85
2022/01/09 09:37:00;;;;;;;38.85;17.48;;;;;;;2.88;51.10;97694.78;4453536;32;20089;-84
2022/01/09 09:39:25;;;;;;;41.92;18.30;;;;;;;2.86;50.98;97690.53;4456803;32;20534;-83
2022/01/09 09:41:51;;;;;;;41.75;18.60;;;;;;;2.90;50.76;97692.97;4443016;32;20131;-81
2022/01/09 09:44:16;;;;;;;38.88;17.52;;;;;;;2.90;50.75;97698.16;4462500;32;20455;-84
2022/01/09 09:46:48;;;;;;;34.45;17.33;;;;;;;3.07;50.42;97694.88;4456133;32;20092;-85
2022/01/09 09:49:14;;;;;;;39.05;18.23;;;;;;;3.25;50.04;97700.22;4456652;32;20100;-82
2022/01/09 09:51:39;;;;;;;39.85;18.42;;;;;;;3.34;49.65;97694.59;4453763;32;20160;-87
2022/01/09 09:54:04;;;;;;;37.60;17.85;;;;;;;3.50;49.13;97698.22;4454793;32;20376;-84
2022/01/09 09:56:30;;;;;;;34.65;15.85;;;;;;;3.65;48.90;97682.84;4463723;32;20526;-87
2022/01/09 09:59:00;;;;;;;36.90;17.33;;;;;;;3.61;48.67;97681.28;4458585;32;20170;-84
2022/01/09 10:01:31;;;;;;;36.05;17.75;;;;;;;3.65;48.08;97688.91;4453243;32;20170;-85
2022/01/09 10:03:58;;;;;;;37.42;18.27;;;;;;;3.79;47.69;97700.47;4453284;32;20539;-83
2022/01/09 10:06:44;;;;;;;37.53;18.00;;;;;;;3.86;47.67;97696.66;4462624;32;20160;-85
2022/01/09 10:09:16;;;;;;;37.55;17.02;;;;;;;3.96;47.55;97699.69;4442292;32;20097;-85
2022/01/09 10:11:51;;;;;;;39.05;18.90;;;;;;;4.04;47.50;97698.44;4455714;32;20109;-83
2022/01/09 10:14:25;;;;;;;37.70;19.30;;;;;;;4.19;47.02;97691.69;4462218;32;20123;-86
2022/01/09 10:17:11;;;;;;;41.08;20.12;;;;;;;4.22;47.05;97699.34;4454236;32;20100;-86
2022/01/09 10:19:43;;;;;;;36.28;18.50;;;;;;;4.34;46.67;97703.16;4454303;32;20138;-87
2022/01/09 10:22:30;;;;;;;42.35;19.37;;;;;;;4.42;46.59;97702.78;4454283;32;20104;-90
2022/01/09 10:24:56;;;;;;;37.70;19.80;;;;;;;4.48;46.64;97699.87;4465853;32;20092;-88
2022/01/09 10:27:32;;;;;;;41.13;18.87;;;;;;;4.55;46.17;97698.69;4456624;32;20089;-87
2022/01/09 10:29:57;;;;;;;34.30;18.00;;;;;;;4.60;46.07;97696.72;4457683;32;20115;-89
2022/01/09 10:32:27;;;;;;;38.30;19.20;;;;;;;4.62;45.99;97691.44;4449310;32;20165;-85
2022/01/09 10:35:05;;;;;;;42.47;20.00;;;;;;;4.58;46.11;97693.34;4467926;32;20127;-85
2022/01/09 10:37:31;;;;;;;37.63;19.37;;;;;;;4.60;46.07;97691.50;4456306;32;20168;-85
2022/01/09 10:40:02;;;;;;;40.75;18.50;;;;;;;4.69;45.95;97679.75;4456196;32;20082;-86
2022/01/09 10:42:28;;;;;;;38.95;19.20;;;;;;;4.71;46.02;97680.53;4464944;32;20117;-87
2022/01/09 10:44:53;;;;;;;39.70;18.42;;;;;;;4.82;45.68;97675.63;4460157;32;20111;-86
2022/01/09 10:47:19;;;;;;;38.65;18.98;;;;;;;4.65;45.91;97670.41;4454757;32;20112;-88
2022/01/09 10:49:49;;;;;;;43.60;19.65;;;;;;;4.73;45.76;97666.50;4454957;32;20069;-89
2022/01/09 10:52:30;;;;;;;39.10;19.33;;;;;;;4.83;45.47;97663.41;4457849;32;20127;-89
2022/01/09 10:54:57;;;;;;;39.55;19.33;;;;;;;4.82;45.55;97661.75;4459943;32;20115;-87
2022/01/09 10:57:29;;;;;;;40.17;19.30;;;;;;;4.92;45.47;97660.37;4457893;32;20085;-86
2022/01/09 11:00:05;;;;;;;39.40;19.02;;;;;;;4.98;45.23;97660.06;4466416;32;20081;-87
2022/01/09 11:02:30;;;;;;;40.22;18.92;;;;;;;5.06;45.09;97657.94;4454775;32;20174;-89
2022/01/09 11:04:55;;;;;;;40.50;20.35;;;;;;;5.16;44.95;97653.09;4454602;32;20141;-87
2022/01/09 11:07:21;;;;;;;40.85;19.40;;;;;;;5.13;44.95;97650.62;4455951;32;20115;-86
2022/01/09 11:09:49;;;;;;;41.55;19.17;;;;;;;5.15;45.02;97648.78;4457235;32;20390;-84
2022/01/09 11:12:17;;;;;;;41.70;19.52;;;;;;;5.19;44.72;97645.06;4464164;32;20120;-83
2022/01/09 11:14:43;;;;;;;36.42;17.65;;;;;;;5.19;44.78;97644.25;4457299;32;20555;-84
2022/01/09 11:17:10;;;;;;;43.90;20.55;;;;;;;5.16;44.96;97641.78;4431824;32;20221;-85
2022/01/09 11:19:36;;;;;;;39.03;19.98;;;;;;;5.19;44.83;97646.84;4468655;32;20076;-84
2022/01/09 11:22:05;;;;;;;39.13;19.80;;;;;;;5.29;44.49;97640.22;4444555;32;20097;-84
2022/01/09 11:24:39;;;;;;;43.33;20.52;;;;;;;5.41;44.19;97639.59;4462533;32;20115;-84
2022/01/09 11:27:13;;;;;;;33.88;18.20;;;;;;;5.48;44.01;97642.72;4455855;32;20085;-83